Time;durP1;ratioP1;P1;durP2;ratioP2;P2;SDS_P1;SDS_P2;PMS_P1;PMS_P2;Temp;Humidity;BMP_temperature;BMP_pressure;BME280_temperature;BME280_humidity;BME280_pressure;Samples;Min_cycle;Max_cycle;Signal;HPM_P1;HPM_P2
2021/12/25 00:01:26;;;;;;;5.57;2.30;;;-0.70;99.90;;;;;;4974626;28;20042;-85
2021/12/25 00:03:55;;;;;;;10.48;2.67;;;-0.80;99.90;;;;;;4974838;28;20038;-85
2021/12/25 00:06:21;;;;;;;6.72;2.30;;;-0.80;99.90;;;;;;5007159;28;20462;-85
2021/12/25 00:08:47;;;;;;;3.97;1.98;;;-0.80;99.90;;;;;;5006677;28;20042;-85
2021/12/25 00:11:13;;;;;;;5.38;2.03;;;-0.80;99.90;;;;;;4974612;28;20046;-85
2021/12/25 00:13:41;;;;;;;5.03;2.33;;;-0.80;99.90;;;;;;4972374;28;20083;-85
2021/12/25 00:16:07;;;;;;;3.75;2.08;;;0.30;99.90;;;;;;5006002;28;20045;-84
2021/12/25 00:18:34;;;;;;;6.47;2.47;;;-0.90;99.90;;;;;;4973998;28;20425;-85
2021/12/25 00:21:00;;;;;;;5.65;2.53;;;-0.90;99.90;;;;;;4973277;28;20034;-84
2021/12/25 00:23:27;;;;;;;4.32;2.22;;;-1.00;99.90;;;;;;4974214;28;20034;-84
2021/12/25 00:25:59;;;;;;;5.55;2.17;;;0.50;99.90;;;;;;5008906;28;20039;-84
2021/12/25 00:35:55;;;;;;;7.13;2.30;;;-1.00;99.90;;;;;;4972687;28;20038;-84
2021/12/25 00:38:21;;;;;;;6.63;2.08;;;-1.00;99.90;;;;;;4990338;28;20034;-84
2021/12/25 00:40:46;;;;;;;5.35;2.20;;;-1.10;99.90;;;;;;4973734;28;20030;-83
2021/12/25 00:43:12;;;;;;;2.92;1.80;;;-1.10;99.90;;;;;;4992923;28;20042;-84
2021/12/25 00:45:38;;;;;;;9.25;2.22;;;-1.20;99.90;;;;;;4994182;22;20446;-84
2021/12/25 00:48:04;;;;;;;4.97;1.90;;;-0.10;99.90;;;;;;5015746;28;20128;-84
2021/12/25 00:50:30;;;;;;;4.38;2.10;;;-1.20;99.90;;;;;;5020737;28;20044;-83
2021/12/25 00:52:55;;;;;;;8.70;1.92;;;-1.30;99.90;;;;;;5037329;28;20029;-84
2021/12/25 00:55:21;;;;;;;7.22;1.98;;;-1.20;99.90;;;;;;5018433;28;20120;-84
2021/12/25 00:57:47;;;;;;;5.28;1.85;;;-1.30;99.90;;;;;;5016694;28;20029;-85
2021/12/25 01:00:15;;;;;;;4.13;2.40;;;-1.30;99.90;;;;;;5022037;28;20386;-84
2021/12/25 01:02:43;;;;;;;3.33;1.90;;;-1.40;99.90;;;;;;5035959;28;20586;-84
2021/12/25 01:05:11;;;;;;;3.80;1.90;;;-1.40;99.90;;;;;;5037111;28;20064;-84
2021/12/25 01:07:37;;;;;;;6.03;2.00;;;-0.60;99.90;;;;;;5063177;28;20094;-83
2021/12/25 01:10:07;;;;;;;6.00;1.80;;;-1.50;99.90;;;;;;5029415;28;20449;-84
2021/12/25 01:12:49;;;;;;;4.43;2.58;;;-1.50;99.90;;;;;;5051874;28;20120;-84
2021/12/25 01:15:17;;;;;;;3.20;1.77;;;-0.70;99.90;;;;;;5038218;28;20627;-83
2021/12/25 01:20:39;;;;;;;5.75;1.83;;;-0.70;99.90;;;;;;5040933;28;20464;-84
2021/12/25 01:36:24;;;;;;;4.43;1.70;;;-0.90;99.90;;;;;;5048065;28;20047;-83
2021/12/25 01:39:11;;;;;;;4.57;1.77;;;-1.30;99.90;;;;;;5045588;28;20658;-84
2021/12/25 01:49:32;;;;;;;5.03;1.77;;;-2.10;99.90;;;;;;5047375;28;20072;-84
2021/12/25 01:51:58;;;;;;;6.70;1.70;;;-1.10;99.90;;;;;;5039630;28;20040;-84
2021/12/25 01:54:24;;;;;;;8.20;2.65;;;-2.20;99.90;;;;;;5037828;28;20043;-84
2021/12/25 01:56:50;;;;;;;6.05;1.77;;;-2.30;99.90;;;;;;5043370;28;20504;-84
2021/12/25 01:59:16;;;;;;;2.88;1.50;;;-2.30;99.90;;;;;;5024014;28;20037;-84
2021/12/25 02:01:43;;;;;;;5.80;2.17;;;-2.30;99.90;;;;;;5039690;28;20028;-84
2021/12/25 02:04:09;;;;;;;4.13;1.50;;;-2.30;99.90;;;;;;5035964;28;20045;-84
2021/12/25 02:06:35;;;;;;;8.32;2.72;;;-2.40;99.90;;;;;;5048362;28;20115;-83
2021/12/25 02:09:01;;;;;;;6.22;1.63;;;-2.50;99.90;;;;;;5031180;28;20518;-84
2021/12/25 02:11:27;;;;;;;5.57;1.58;;;-2.50;99.90;;;;;;5023549;28;20537;-83
2021/12/25 02:13:53;;;;;;;3.80;1.63;;;-1.70;99.90;;;;;;5019697;28;20040;-84
2021/12/25 02:16:22;;;;;;;2.72;1.45;;;-2.60;99.90;;;;;;5034682;28;20033;-84
2021/12/25 02:19:06;;;;;;;3.65;1.58;;;-2.60;99.90;;;;;;5038557;28;20106;-84
2021/12/25 02:21:37;;;;;;;2.20;1.50;;;-2.60;99.90;;;;;;5038167;28;20040;-84
2021/12/25 02:24:09;;;;;;;4.25;1.60;;;-2.70;99.90;;;;;;5031373;28;20050;-84
2021/12/25 02:26:37;;;;;;;5.80;1.40;;;-2.70;99.90;;;;;;5035531;28;20037;-85
2021/12/25 02:29:03;;;;;;;3.70;1.85;;;-2.80;99.90;;;;;;5048971;28;20074;-84
2021/12/25 02:31:29;;;;;;;4.75;1.52;;;-2.70;99.90;;;;;;5017692;28;20059;-84
2021/12/25 02:33:55;;;;;;;4.65;1.50;;;-2.80;99.90;;;;;;5032301;28;20041;-84
2021/12/25 02:36:21;;;;;;;3.30;1.25;;;-2.80;99.90;;;;;;5030554;28;20041;-84
2021/12/25 02:38:49;;;;;;;2.33;1.50;;;-2.50;99.90;;;;;;5015614;28;20524;-84
2021/12/25 02:41:15;;;;;;;4.25;1.75;;;-2.90;99.90;;;;;;5058757;28;20037;-85
2021/12/25 02:43:44;;;;;;;6.15;1.70;;;-3.00;99.90;;;;;;5026613;28;20043;-84
2021/12/25 02:46:10;;;;;;;3.05;1.63;;;-3.00;99.90;;;;;;5014902;28;20029;-84
2021/12/25 02:48:37;;;;;;;3.90;1.58;;;-3.00;99.90;;;;;;5023211;28;20051;-84
2021/12/25 02:51:05;;;;;;;7.13;2.45;;;-1.70;99.90;;;;;;5014274;28;20041;-84
2021/12/25 02:53:31;;;;;;;2.00;1.40;;;-3.10;99.90;;;;;;5052896;28;20060;-84
2021/12/25 02:55:57;;;;;;;6.18;1.40;;;-2.10;99.90;;;;;;5032335;28;20720;-84
2021/12/25 02:58:24;;;;;;;3.53;1.40;;;-3.20;99.90;;;;;;5017764;28;20033;-84
2021/12/25 03:00:54;;;;;;;5.10;1.52;;;-3.20;99.90;;;;;;5031102;28;20120;-84
2021/12/25 03:03:20;;;;;;;5.72;1.58;;;-3.30;99.90;;;;;;5047847;28;20128;-84
2021/12/25 03:05:47;;;;;;;5.72;1.65;;;-3.30;99.90;;;;;;5048378;28;20183;-84
2021/12/25 03:08:14;;;;;;;7.30;1.38;;;-3.30;99.90;;;;;;5031587;28;20078;-84
2021/12/25 03:10:40;;;;;;;3.30;1.88;;;-3.30;99.90;;;;;;5047869;28;20056;-84
2021/12/25 03:15:45;;;;;;;1.58;1.15;;;-3.40;99.90;;;;;;5054946;28;20506;-84
2021/12/25 03:18:12;;;;;;;5.13;1.35;;;-2.80;99.90;;;;;;5035993;28;20037;-84
2021/12/25 03:20:40;;;;;;;1.83;1.20;;;-3.50;99.90;;;;;;5030305;28;20033;-84
2021/12/25 03:23:06;;;;;;;2.97;1.25;;;-3.60;99.90;;;;;;5038897;28;20044;-84
2021/12/25 03:25:32;;;;;;;3.28;1.35;;;-3.60;99.90;;;;;;5031920;28;20052;-84
2021/12/25 03:27:58;;;;;;;3.90;1.83;;;-3.60;99.90;;;;;;5009811;28;20036;-84
2021/12/25 03:30:26;;;;;;;1.70;1.10;;;-2.20;99.90;;;;;;5015962;28;20068;-85
2021/12/25 03:32:52;;;;;;;3.15;1.30;;;-3.20;99.90;;;;;;5038068;28;20029;-84
2021/12/25 03:35:19;;;;;;;6.13;1.25;;;-3.70;99.90;;;;;;4997122;28;20049;-84
2021/12/25 03:37:45;;;;;;;1.52;1.20;;;-3.70;99.90;;;;;;5031826;28;20041;-84
2021/12/25 03:40:11;;;;;;;2.88;1.30;;;-3.70;99.90;;;;;;5031058;28;20051;-84
2021/12/25 03:42:37;;;;;;;4.93;1.20;;;-3.80;99.90;;;;;;5050023;28;20116;-84
2021/12/25 03:45:03;;;;;;;2.92;1.25;;;-3.80;99.90;;;;;;5004867;28;20124;-84
2021/12/25 03:47:34;;;;;;;1.58;1.20;;;-3.80;99.90;;;;;;5035411;28;20057;-84
2021/12/25 03:58:21;;;;;;;3.38;1.48;;;-3.90;99.90;;;;;;5014122;28;20068;-84
2021/12/25 04:00:48;;;;;;;2.95;1.13;;;-4.00;99.90;;;;;;4969831;28;20529;-84
2021/12/25 04:06:10;;;;;;;1.70;0.93;;;-4.00;99.90;;;;;;5005379;28;20050;-84
2021/12/25 04:08:43;;;;;;;3.20;1.30;;;-4.10;99.90;;;;;;4966424;28;20576;-84
2021/12/25 04:11:24;;;;;;;3.65;1.15;;;-4.10;99.90;;;;;;5021307;28;20072;-84
2021/12/25 04:13:50;;;;;;;1.92;1.20;;;-4.10;99.90;;;;;;5014874;28;20418;-84
2021/12/25 04:16:16;;;;;;;1.48;1.30;;;-4.10;99.90;;;;;;4998249;28;20052;-84
2021/12/25 04:18:41;;;;;;;1.08;0.90;;;-4.20;99.90;;;;;;5010311;28;20034;-84
2021/12/25 04:21:07;;;;;;;5.88;1.33;;;-4.20;99.90;;;;;;4978889;28;20046;-84
2021/12/25 04:23:36;;;;;;;1.20;0.90;;;-4.20;99.90;;;;;;4976167;28;20033;-84
2021/12/25 04:26:02;;;;;;;2.40;1.10;;;-4.20;99.90;;;;;;4993897;28;20132;-84
2021/12/25 04:32:02;;;;;;;3.00;1.20;;;-4.30;99.90;;;;;;4982635;28;20120;-84
2021/12/25 05:01:52;;;;;;;3.88;1.30;;;-2.90;99.90;;;;;;5043855;28;20049;-83
2021/12/25 05:04:30;;;;;;;2.05;1.13;;;-4.40;99.90;;;;;;4992322;28;20033;-84
2021/12/25 05:06:56;;;;;;;1.83;1.02;;;-4.50;99.90;;;;;;5013544;28;20041;-84
2021/12/25 05:09:22;;;;;;;2.30;1.10;;;-4.50;99.90;;;;;;5014756;28;20041;-84
2021/12/25 05:11:48;;;;;;;2.72;1.88;;;-4.50;99.90;;;;;;5015562;28;20129;-84
2021/12/25 05:14:14;;;;;;;1.45;1.10;;;-3.40;99.90;;;;;;5002113;28;20070;-84
2021/12/25 05:16:40;;;;;;;2.90;1.25;;;-4.60;99.90;;;;;;5016246;28;20634;-85
2021/12/25 05:19:06;;;;;;;2.08;1.55;;;-4.60;99.90;;;;;;5012809;28;20037;-87
2021/12/25 05:21:32;;;;;;;4.07;1.73;;;-4.60;99.90;;;;;;5013202;28;20044;-84
2021/12/25 05:23:59;;;;;;;3.00;1.08;;;-4.20;99.90;;;;;;5029160;28;20049;-84
2021/12/25 05:26:25;;;;;;;2.80;1.25;;;-4.60;99.90;;;;;;5013041;28;20507;-84
2021/12/25 05:28:59;;;;;;;1.83;1.38;;;-4.60;99.90;;;;;;4996660;28;20084;-84
2021/12/25 05:31:27;;;;;;;1.30;1.20;;;-4.60;99.90;;;;;;5009952;28;20041;-84
2021/12/25 05:33:53;;;;;;;5.38;1.50;;;-4.60;99.90;;;;;;5031687;28;20044;-85
2021/12/25 05:36:19;;;;;;;2.40;1.02;;;-4.70;99.90;;;;;;5008299;28;20037;-85
2021/12/25 05:38:45;;;;;;;1.27;1.17;;;-4.70;99.90;;;;;;5050182;28;20037;-85
2021/12/25 05:41:11;;;;;;;1.52;1.10;;;-4.70;99.90;;;;;;5022171;28;20051;-85
2021/12/25 05:43:38;;;;;;;1.77;1.08;;;-4.80;99.90;;;;;;5014728;28;20115;-86
2021/12/25 05:46:04;;;;;;;1.75;1.30;;;-3.90;99.90;;;;;;5035271;28;20367;-85
2021/12/25 05:48:35;;;;;;;6.43;1.08;;;-4.90;99.90;;;;;;4996921;28;20095;-85
2021/12/25 05:51:02;;;;;;;2.30;1.20;;;-4.80;99.90;;;;;;5020581;28;20116;-85
2021/12/25 05:53:27;;;;;;;1.23;1.13;;;-2.80;99.90;;;;;;5011585;28;20552;-85
2021/12/25 05:55:53;;;;;;;2.75;1.15;;;-4.90;99.90;;;;;;4999080;28;20060;-85
2021/12/25 05:58:19;;;;;;;1.13;0.90;;;-4.90;99.90;;;;;;5013877;28;20037;-85
2021/12/25 06:00:45;;;;;;;1.40;1.10;;;-4.90;99.90;;;;;;5026951;28;20037;-85
2021/12/25 06:03:10;;;;;;;1.90;1.00;;;-4.90;99.90;;;;;;4994720;28;20045;-85
2021/12/25 06:05:36;;;;;;;1.15;1.05;;;-4.90;99.90;;;;;;5029506;28;20029;-85
2021/12/25 06:08:03;;;;;;;1.58;1.27;;;-5.00;99.90;;;;;;5027632;28;20072;-85
2021/12/25 06:10:29;;;;;;;2.42;1.25;;;-4.90;99.90;;;;;;5001609;28;20040;-85
2021/12/25 06:12:58;;;;;;;4.78;1.13;;;-5.00;99.90;;;;;;5014124;28;20040;-85
2021/12/25 06:15:24;;;;;;;4.57;1.48;;;-5.00;99.90;;;;;;5030135;28;20048;-85
2021/12/25 06:17:50;;;;;;;1.27;1.08;;;-5.00;99.90;;;;;;5012281;28;20642;-85
2021/12/25 06:20:16;;;;;;;0.80;0.80;;;-5.00;99.90;;;;;;5026849;28;20115;-85
2021/12/25 06:22:42;;;;;;;1.20;1.10;;;-5.00;99.90;;;;;;4994740;28;20040;-85
2021/12/25 06:25:08;;;;;;;3.80;1.15;;;-5.00;99.90;;;;;;5014019;28;20119;-85
2021/12/25 06:27:34;;;;;;;1.02;0.93;;;-5.00;99.90;;;;;;5005661;28;20037;-85
2021/12/25 06:30:00;;;;;;;5.10;1.20;;;-5.00;99.90;;;;;;5018370;28;20048;-85
2021/12/25 06:32:25;;;;;;;0.80;0.80;;;-5.10;99.90;;;;;;5013042;28;20095;-85
2021/12/25 06:34:51;;;;;;;5.50;1.17;;;-5.20;99.90;;;;;;4995493;28;20116;-85
2021/12/25 06:37:18;;;;;;;1.63;1.30;;;-3.70;99.90;;;;;;5011309;28;20069;-85
2021/12/25 06:39:44;;;;;;;4.50;1.10;;;-5.20;99.90;;;;;;5011759;28;20038;-85
2021/12/25 06:42:10;;;;;;;1.58;0.75;;;-5.10;99.90;;;;;;5011035;28;20051;-84
2021/12/25 06:44:36;;;;;;;1.60;0.90;;;-4.20;99.90;;;;;;4994200;28;20029;-84
2021/12/25 06:47:02;;;;;;;1.92;0.93;;;-5.20;99.90;;;;;;5001943;28;20065;-85
2021/12/25 06:49:29;;;;;;;2.97;0.75;;;-5.10;99.90;;;;;;5005147;28;20087;-85
2021/12/25 06:51:55;;;;;;;2.25;0.98;;;-5.10;99.90;;;;;;5018845;28;20037;-84
2021/12/25 06:54:21;;;;;;;1.63;1.08;;;-5.20;99.90;;;;;;4994866;28;20072;-85
2021/12/25 06:56:47;;;;;;;1.13;0.90;;;-5.10;99.90;;;;;;5006057;28;20516;-84
2021/12/25 06:59:14;;;;;;;10.98;1.17;;;-4.50;99.90;;;;;;5022308;28;20045;-84
2021/12/25 07:01:40;;;;;;;1.10;0.77;;;-5.20;99.90;;;;;;5044746;28;20037;-84
2021/12/25 07:04:07;;;;;;;1.83;0.80;;;-5.30;99.90;;;;;;5005092;28;20049;-84
2021/12/25 07:06:36;;;;;;;0.63;0.63;;;-5.20;99.90;;;;;;5027542;28;20033;-84
2021/12/25 07:09:05;;;;;;;1.48;0.98;;;-5.20;99.90;;;;;;5027729;28;20030;-84
2021/12/25 07:11:31;;;;;;;1.27;1.10;;;-5.20;99.90;;;;;;5019070;28;20041;-84
2021/12/25 07:14:00;;;;;;;1.27;0.90;;;-5.20;99.90;;;;;;5028509;28;20052;-84
2021/12/25 07:16:26;;;;;;;1.63;0.98;;;-5.20;99.90;;;;;;5022479;28;20052;-85
2021/12/25 07:18:51;;;;;;;1.55;0.90;;;-4.10;99.90;;;;;;5027157;28;20042;-84
2021/12/25 07:21:17;;;;;;;2.25;1.27;;;-5.30;99.90;;;;;;5011318;28;20049;-85
2021/12/25 07:23:43;;;;;;;3.08;1.00;;;-5.30;99.90;;;;;;5025864;28;20437;-84
2021/12/25 07:26:09;;;;;;;2.58;1.13;;;-5.30;99.90;;;;;;5036974;28;20040;-84
2021/12/25 07:28:35;;;;;;;2.15;1.13;;;-5.40;99.90;;;;;;5015818;28;20131;-84
2021/12/25 07:31:01;;;;;;;1.23;0.85;;;-5.30;99.90;;;;;;5005701;28;20045;-84
2021/12/25 07:33:29;;;;;;;1.85;1.23;;;-4.40;99.90;;;;;;5017563;28;20037;-84
2021/12/25 07:35:55;;;;;;;0.85;0.75;;;-5.40;99.90;;;;;;5011150;28;20057;-84
2021/12/25 07:38:21;;;;;;;1.50;0.68;;;-3.90;99.90;;;;;;5026596;28;20045;-85
2021/12/25 07:40:48;;;;;;;2.00;0.77;;;-5.40;99.90;;;;;;5012118;28;20276;-84
2021/12/25 07:43:14;;;;;;;1.00;0.90;;;-3.60;99.90;;;;;;5011431;28;20578;-84
2021/12/25 07:45:40;;;;;;;1.27;0.90;;;-5.40;99.90;;;;;;5028794;28;20033;-84
2021/12/25 07:48:06;;;;;;;1.42;1.00;;;-5.40;99.90;;;;;;5038849;28;20079;-84
2021/12/25 07:50:35;;;;;;;4.30;1.05;;;-5.40;99.90;;;;;;5012140;28;20072;-84
2021/12/25 07:53:01;;;;;;;1.38;0.80;;;-5.40;99.90;;;;;;5062541;28;20498;-84
2021/12/25 07:55:29;;;;;;;3.13;0.95;;;-5.40;99.90;;;;;;5051104;28;20145;-84
2021/12/25 07:57:56;;;;;;;1.20;0.90;;;-5.40;99.90;;;;;;5025069;28;20052;-84
2021/12/25 08:00:22;;;;;;;0.90;0.73;;;-5.40;99.90;;;;;;5014607;28;20090;-84
2021/12/25 08:02:48;;;;;;;0.88;0.80;;;-5.40;99.90;;;;;;5021498;28;20125;-84
2021/12/25 08:05:14;;;;;;;1.88;0.88;;;-5.40;99.90;;;;;;5025442;28;20120;-84
2021/12/25 08:07:40;;;;;;;1.75;0.95;;;-5.40;99.90;;;;;;5015021;28;20049;-84
2021/12/25 08:10:13;;;;;;;2.95;1.00;;;-5.40;99.90;;;;;;5027711;28;20098;-84
2021/12/25 08:12:49;;;;;;;2.33;1.17;;;-5.30;99.90;;;;;;5001685;28;20037;-85
2021/12/25 08:15:17;;;;;;;1.80;0.82;;;-5.30;99.90;;;;;;5031669;28;20658;-85
2021/12/25 08:17:43;;;;;;;1.75;0.98;;;-5.30;99.90;;;;;;5032051;28;20096;-84
2021/12/25 08:20:09;;;;;;;1.83;1.10;;;-5.30;99.90;;;;;;4993724;28;20518;-84
2021/12/25 08:22:36;;;;;;;1.80;1.27;;;-5.30;99.90;;;;;;5038461;28;20071;-85
2021/12/25 08:25:02;;;;;;;1.33;1.00;;;-5.30;99.90;;;;;;5003747;28;20033;-84
2021/12/25 08:27:28;;;;;;;4.88;1.10;;;-5.30;99.90;;;;;;5020902;28;20029;-84
2021/12/25 08:29:54;;;;;;;0.90;0.90;;;-5.30;99.90;;;;;;4996415;28;20033;-84
2021/12/25 08:32:20;;;;;;;2.53;1.08;;;-5.40;99.90;;;;;;4986860;28;20579;-86
2021/12/25 08:34:45;;;;;;;1.75;0.90;;;-5.30;99.90;;;;;;5017696;28;20047;-84
2021/12/25 08:37:12;;;;;;;0.98;0.95;;;-5.30;99.90;;;;;;5033670;28;20076;-84
2021/12/25 08:39:39;;;;;;;2.03;1.30;;;-5.30;99.90;;;;;;5032500;28;20127;-84
2021/12/25 08:42:06;;;;;;;5.63;2.10;;;-5.30;99.90;;;;;;5033894;28;20068;-84
2021/12/25 08:47:06;;;;;;;2.30;0.90;;;-4.10;99.90;;;;;;5037932;28;20046;-84
2021/12/25 08:49:34;;;;;;;1.63;1.17;;;-5.20;99.90;;;;;;5049364;28;20052;-84
2021/12/25 08:52:07;;;;;;;2.28;1.08;;;-5.10;99.90;;;;;;5030735;28;20516;-84
2021/12/25 08:54:34;;;;;;;1.20;1.05;;;-5.00;99.90;;;;;;5030927;28;20037;-84
2021/12/25 08:57:00;;;;;;;1.08;0.90;;;-3.10;99.90;;;;;;5033458;28;20049;-84
2021/12/25 08:59:27;;;;;;;2.70;1.08;;;-5.10;99.90;;;;;;5030780;28;20127;-86
2021/12/25 09:01:54;;;;;;;1.52;1.13;;;-4.90;99.90;;;;;;5015127;28;20021;-84
2021/12/25 09:04:20;;;;;;;2.00;1.20;;;-4.90;99.90;;;;;;5030651;28;20037;-88
2021/12/25 09:06:46;;;;;;;4.18;1.08;;;-3.60;99.90;;;;;;5031522;28;20040;-89
2021/12/25 09:09:12;;;;;;;1.20;1.10;;;-3.90;99.90;;;;;;5033230;28;20439;-88
2021/12/25 09:11:39;;;;;;;2.33;1.13;;;-3.00;99.90;;;;;;5029076;28;20045;-87
2021/12/25 09:14:05;;;;;;;2.05;1.00;;;-2.30;99.90;;;;;;5020727;28;20068;-89
2021/12/25 09:16:31;;;;;;;1.73;1.10;;;-1.80;99.90;;;;;;5032179;28;20094;-87
2021/12/25 09:18:56;;;;;;;1.38;1.00;;;-1.30;99.90;;;;;;5023614;28;20044;-84
2021/12/25 09:21:22;;;;;;;1.73;1.15;;;-1.60;99.90;;;;;;5005158;28;20041;-91
2021/12/25 09:23:48;;;;;;;1.17;0.90;;;-1.70;99.90;;;;;;5025863;28;20065;-89
2021/12/25 09:26:14;;;;;;;4.03;1.20;;;-1.40;99.90;;;;;;5002617;28;20168;-90
2021/12/25 09:28:40;;;;;;;2.10;1.15;;;-0.90;99.90;;;;;;5024418;28;20113;-91
2021/12/25 09:31:06;;;;;;;3.95;1.35;;;-0.70;99.90;;;;;;5029783;28;20133;-90
2021/12/25 09:33:32;;;;;;;3.85;1.20;;;-0.60;99.90;;;;;;4995848;28;20030;-91
2021/12/25 09:35:58;;;;;;;2.10;0.90;;;0.10;99.90;;;;;;5012361;28;20098;-91
2021/12/25 09:38:24;;;;;;;1.42;0.98;;;-0.70;99.90;;;;;;5003761;28;20119;-92
2021/12/25 09:40:49;;;;;;;3.13;0.90;;;-0.70;99.90;;;;;;5001772;28;20041;-90
2021/12/25 09:43:18;;;;;;;2.47;1.30;;;-0.70;99.90;;;;;;5013508;28;20040;-96
2021/12/25 09:45:44;;;;;;;1.60;1.00;;;-0.70;99.90;;;;;;5004462;28;20124;-90
2021/12/25 09:48:10;;;;;;;3.90;1.20;;;-0.60;99.90;;;;;;5007419;28;20120;-91
2021/12/25 09:50:36;;;;;;;1.80;1.20;;;0.50;99.90;;;;;;5032860;28;20100;-90
2021/12/25 09:53:07;;;;;;;3.38;1.13;;;-0.50;99.90;;;;;;5015924;28;20041;-90
2021/12/25 09:55:33;;;;;;;3.40;1.02;;;-0.80;99.90;;;;;;5021171;28;20124;-90
2021/12/25 09:57:59;;;;;;;4.75;1.30;;;-1.30;99.90;;;;;;5013938;28;20053;-90
2021/12/25 10:00:26;;;;;;;1.30;0.95;;;-1.70;99.90;;;;;;4993760;28;20033;-90
2021/12/25 10:02:56;;;;;;;0.90;0.70;;;-1.60;99.90;;;;;;5032092;28;20067;-90
2021/12/25 10:05:27;;;;;;;1.23;1.00;;;-2.20;99.90;;;;;;5029794;28;20048;-89
2021/12/25 10:08:17;;;;;;;2.13;0.93;;;-2.30;99.90;;;;;;5026096;28;20033;-89
2021/12/25 10:11:08;;;;;;;1.50;0.95;;;-2.30;99.90;;;;;;5039953;28;20482;-87
2021/12/25 10:13:39;;;;;;;3.03;1.20;;;-2.60;99.90;;;;;;5043391;28;20037;-84
2021/12/25 10:16:20;;;;;;;4.68;1.55;;;-2.80;99.90;;;;;;5030290;28;20556;-85
2021/12/25 10:18:47;;;;;;;3.08;0.93;;;-3.00;99.90;;;;;;5064314;28;20513;-87
2021/12/25 10:21:30;;;;;;;3.80;1.00;;;-3.10;99.90;;;;;;5048073;28;20696;-86
2021/12/25 10:24:10;;;;;;;4.55;1.20;;;-3.10;99.90;;;;;;5030086;28;20383;-87
2021/12/25 10:26:39;;;;;;;1.83;1.17;;;-3.20;99.90;;;;;;5030169;28;20498;-87
2021/12/25 10:29:34;;;;;;;0.82;0.70;;;-3.10;99.90;;;;;;5032071;28;20052;-88
2021/12/25 10:32:17;;;;;;;2.20;1.50;;;-3.20;99.90;;;;;;5019303;28;20223;-86
2021/12/25 10:34:44;;;;;;;1.13;0.90;;;-3.20;99.90;;;;;;5028930;28;20041;-86
2021/12/25 10:37:13;;;;;;;1.55;1.00;;;-3.20;99.90;;;;;;5030770;28;20116;-87
2021/12/25 10:39:39;;;;;;;2.15;1.08;;;-3.20;99.90;;;;;;5032131;28;20048;-86
2021/12/25 10:42:13;;;;;;;1.15;0.85;;;-3.20;99.90;;;;;;5029064;28;20402;-86
2021/12/25 10:44:41;;;;;;;1.65;1.20;;;-3.20;99.90;;;;;;5041566;28;20558;-86
2021/12/25 10:47:17;;;;;;;3.72;1.15;;;-1.50;99.90;;;;;;5022394;28;20162;-86
2021/12/25 10:49:45;;;;;;;3.03;1.25;;;-3.20;99.90;;;;;;5031646;28;20078;-86
2021/12/25 10:52:24;;;;;;;1.52;1.02;;;-3.20;99.90;;;;;;5032400;28;20037;-86
2021/12/25 10:55:01;;;;;;;3.03;1.23;;;-3.10;99.90;;;;;;5045412;28;20041;-86
2021/12/25 10:57:37;;;;;;;4.07;1.20;;;-3.10;99.90;;;;;;5012479;28;20076;-86
2021/12/25 11:00:08;;;;;;;5.75;1.20;;;-3.10;99.90;;;;;;5025765;28;20188;-86
2021/12/25 11:02:42;;;;;;;2.03;1.23;;;-3.10;99.90;;;;;;5042731;28;20120;-86
2021/12/25 11:05:28;;;;;;;3.17;2.13;;;-3.00;99.90;;;;;;5011672;28;20083;-86
2021/12/25 11:08:13;;;;;;;4.38;1.50;;;-3.00;99.90;;;;;;5027699;28;20122;-86
2021/12/25 11:11:04;;;;;;;1.70;1.10;;;-2.90;99.90;;;;;;5031579;28;20041;-86
2021/12/25 11:13:51;;;;;;;2.33;1.00;;;-2.80;99.90;;;;;;5015443;28;20047;-86
2021/12/25 11:16:30;;;;;;;3.67;1.33;;;-2.80;99.90;;;;;;5047924;28;20044;-86
2021/12/25 11:19:05;;;;;;;1.08;0.98;;;-2.70;99.90;;;;;;5020515;28;20045;-86
2021/12/25 11:21:41;;;;;;;1.45;1.00;;;-2.60;99.90;;;;;;5032337;28;20036;-86
2021/12/25 11:24:18;;;;;;;2.28;1.05;;;-2.60;99.90;;;;;;5044644;28;20091;-86
2021/12/25 11:26:47;;;;;;;2.95;1.17;;;-2.60;99.90;;;;;;5018329;28;20442;-86
2021/12/25 11:29:16;;;;;;;1.42;0.90;;;-2.70;99.90;;;;;;5051864;28;20086;-86
2021/12/25 11:31:43;;;;;;;3.30;1.02;;;-2.70;99.90;;;;;;5020879;28;20445;-86
2021/12/25 11:34:10;;;;;;;2.00;1.00;;;-2.70;99.90;;;;;;5020543;28;20041;-86
2021/12/25 11:36:41;;;;;;;1.20;1.10;;;-2.70;99.90;;;;;;5008678;28;20047;-86
2021/12/25 11:39:07;;;;;;;1.75;1.15;;;-2.60;99.90;;;;;;5003695;28;20046;-86
2021/12/25 11:41:35;;;;;;;4.40;1.80;;;-1.00;99.90;;;;;;5016281;28;20040;-87
2021/12/25 11:44:05;;;;;;;3.70;1.42;;;-2.60;99.90;;;;;;5018341;28;20095;-86
2021/12/25 11:46:44;;;;;;;1.48;1.35;;;-2.50;99.90;;;;;;5030928;28;20038;-87
2021/12/25 11:49:15;;;;;;;2.97;1.23;;;-2.60;99.90;;;;;;5048487;28;20567;-88
2021/12/25 11:51:44;;;;;;;1.40;1.30;;;-2.50;99.90;;;;;;5015285;28;20392;-86
2021/12/25 11:59:46;;;;;;;2.05;1.17;;;-1.10;99.90;;;;;;5065577;28;20052;-86
2021/12/25 12:02:32;;;;;;;1.85;1.17;;;-2.50;99.90;;;;;;5033646;28;20072;-87
2021/12/25 12:05:19;;;;;;;1.15;0.90;;;-1.00;99.90;;;;;;5032480;28;20076;-86
2021/12/25 12:08:05;;;;;;;1.42;1.20;;;-2.50;99.90;;;;;;5033403;28;20108;-86
2021/12/25 12:10:46;;;;;;;1.73;1.10;;;-2.50;99.90;;;;;;5048621;28;20040;-85
2021/12/25 12:13:23;;;;;;;2.60;1.27;;;-2.50;99.90;;;;;;5049196;28;20444;-86
2021/12/25 12:15:52;;;;;;;2.03;1.15;;;-2.50;99.90;;;;;;5047303;28;20036;-86
2021/12/25 12:18:24;;;;;;;2.97;1.10;;;-2.40;99.90;;;;;;5049875;28;20033;-86
2021/12/25 12:20:51;;;;;;;3.53;1.60;;;-0.90;99.90;;;;;;5049563;28;20047;-86
2021/12/25 12:26:13;;;;;;;1.75;1.23;;;-2.30;99.90;;;;;;5045562;28;20556;-86
2021/12/25 12:28:46;;;;;;;4.05;1.02;;;-2.30;99.90;;;;;;5031686;28;20091;-86
2021/12/25 12:31:32;;;;;;;2.80;1.58;;;-2.20;99.90;;;;;;5047605;28;20037;-85
2021/12/25 12:33:58;;;;;;;3.72;1.27;;;-2.10;99.90;;;;;;5025923;28;20112;-85
2021/12/25 12:36:26;;;;;;;2.63;1.20;;;-2.00;99.90;;;;;;5043773;28;20128;-86
2021/12/25 12:38:56;;;;;;;0.98;0.88;;;-1.90;99.90;;;;;;5047202;28;20120;-86
2021/12/25 12:41:38;;;;;;;1.85;1.10;;;-1.90;99.90;;;;;;5032222;28;20075;-82
2021/12/25 12:44:25;;;;;;;6.28;1.98;;;-1.80;99.90;;;;;;5062077;28;20037;-86
2021/12/25 12:46:51;;;;;;;2.15;1.48;;;-2.80;99.90;;;;;;5048772;28;20116;-86
2021/12/25 12:49:19;;;;;;;3.15;1.40;;;-1.70;99.90;;;;;;5031670;28;20040;-85
2021/12/25 12:52:09;;;;;;;1.85;1.20;;;-0.20;99.90;;;;;;5031988;28;20033;-86
2021/12/25 12:54:40;;;;;;;3.33;1.42;;;-1.40;99.90;;;;;;5038110;28;20056;-86
2021/12/25 12:57:06;;;;;;;4.70;1.50;;;-1.40;99.90;;;;;;5047362;28;20532;-85
2021/12/25 12:59:47;;;;;;;2.85;1.17;;;-1.30;99.90;;;;;;5039161;28;20045;-86
2021/12/25 13:02:14;;;;;;;2.63;1.70;;;-1.30;99.90;;;;;;5038032;28;20106;-86
2021/12/25 13:04:49;;;;;;;4.38;1.70;;;-1.30;99.90;;;;;;5029452;28;20041;-87
2021/12/25 13:07:18;;;;;;;2.33;1.30;;;-1.30;99.90;;;;;;5048750;28;20041;-87
2021/12/25 13:09:51;;;;;;;2.17;1.00;;;-1.20;99.90;;;;;;5046984;28;20590;-87
2021/12/25 13:12:43;;;;;;;2.10;1.35;;;-1.20;99.90;;;;;;5030188;28;20603;-87
2021/12/25 13:15:14;;;;;;;2.17;1.13;;;-0.50;99.90;;;;;;5046538;28;20469;-86
2021/12/25 13:17:58;;;;;;;2.20;1.30;;;-1.20;99.90;;;;;;5031703;28;20037;-84
2021/12/25 13:20:50;;;;;;;4.28;1.27;;;-1.30;99.90;;;;;;5029992;28;20250;-83
2021/12/25 13:23:24;;;;;;;2.63;1.05;;;-1.30;99.90;;;;;;5063983;28;20033;-86
2021/12/25 13:26:03;;;;;;;1.48;1.00;;;-1.30;99.90;;;;;;5045640;28;20057;-86
2021/12/25 13:28:34;;;;;;;3.08;1.35;;;-1.30;99.90;;;;;;5031263;28;20032;-85
2021/12/25 13:31:07;;;;;;;3.20;1.05;;;-1.40;99.90;;;;;;5028833;28;20489;-85
2021/12/25 13:33:38;;;;;;;1.52;1.40;;;-1.50;99.90;;;;;;5029358;28;20041;-87
2021/12/25 13:36:09;;;;;;;3.72;1.00;;;-1.60;99.90;;;;;;5030340;28;20397;-86
2021/12/25 13:39:05;;;;;;;1.40;1.13;;;-1.30;99.90;;;;;;5032080;28;20041;-90
2021/12/25 13:41:43;;;;;;;6.28;1.75;;;-1.70;99.90;;;;;;5012634;28;20498;-84
2021/12/25 13:44:32;;;;;;;2.35;1.00;;;-1.70;99.90;;;;;;5014723;28;20405;-83
2021/12/25 13:47:01;;;;;;;1.27;1.10;;;-1.80;99.90;;;;;;5001744;28;20607;-87
2021/12/25 13:49:39;;;;;;;2.25;1.13;;;-1.90;99.90;;;;;;5031930;28;20060;-87
2021/12/25 13:52:08;;;;;;;1.52;1.00;;;-2.00;99.90;;;;;;5030229;28;20037;-87
2021/12/25 13:54:43;;;;;;;2.08;1.30;;;-1.00;99.90;;;;;;5031465;28;20132;-86
2021/12/25 13:57:11;;;;;;;5.85;1.73;;;-1.00;99.90;;;;;;5052219;28;20132;-86
2021/12/25 13:59:38;;;;;;;3.85;1.77;;;-1.00;99.90;;;;;;5030511;28;20072;-87
2021/12/25 14:02:11;;;;;;;1.48;1.33;;;-2.30;99.90;;;;;;5047423;28;20095;-87
2021/12/25 14:04:40;;;;;;;5.40;1.58;;;-2.40;99.90;;;;;;5044893;28;20075;-88
2021/12/25 14:07:06;;;;;;;3.95;1.40;;;-1.10;99.90;;;;;;5029979;28;20045;-87
2021/12/25 14:09:32;;;;;;;2.85;1.38;;;-2.50;99.90;;;;;;5027172;28;20063;-87
2021/12/25 14:11:58;;;;;;;3.10;1.45;;;-2.50;99.90;;;;;;5031295;28;20417;-87
2021/12/25 14:14:26;;;;;;;2.97;1.27;;;-1.10;99.90;;;;;;5047381;28;20045;-87
2021/12/25 14:16:53;;;;;;;3.72;1.40;;;-2.60;99.90;;;;;;5051581;28;20111;-87
2021/12/25 14:19:23;;;;;;;1.90;1.25;;;-2.70;99.90;;;;;;5012393;28;20116;-86
2021/12/25 14:22:00;;;;;;;2.90;2.10;;;-2.70;99.90;;;;;;5046715;28;20052;-86
2021/12/25 14:24:30;;;;;;;1.92;1.33;;;-2.70;99.90;;;;;;5046480;28;20490;-88
2021/12/25 14:27:11;;;;;;;6.13;1.50;;;-2.70;99.90;;;;;;5014560;28;20096;-88